Atlantic Beach, North Carolina
Current Conditions -  °F | °C
As of 4:58 PM on Monday 20 Oct 2014 (Local Time) from KMRH Reporting Station
Clear Clear  
Wind Chill: 70°   Ceiling: Unl
Heat Index: 70°   Visibility: 10mi
Dew Point: 54°   Wind: 9mph
Humidity: 57%   Direction: 150°SSE
Pressure: 30.03"   Gusts: NA
Location:  34.7°N, 76.74°W
Report Text: KMRH 202058Z AUTO 15008KT 10SM CLR 21/12 A3003 RMK AO2 SLP169 T02110122 56020 TSNO
Loading
Personal Weather Stations






























Interactive Weather Map New forecast layout! Learn more

10-Day Weather Forecast

Advertisements
Track Severe Weather on mobile